Overview Statistics Trail Chart Weather Telemetry Raw packets
 

This is the latest recevied weather packets stored in our database for station/object AI5BL. If no packets are shown the sender has not sent any weather packets the latest 10 day(s).

<< 38 39 40 41 42 43 44 >>
Time Temp. Humidity Pressure Rain* Wind** Luminosity Snow
1788392868 29.44° C 70% 1017.1 hPa 0 mm - 7 W/m² -
1788392562 30° C 71% 1017.2 hPa 0 mm - 9 W/m² -
1788392262 30° C 70% 1017 hPa 0 mm - 10 W/m² -
1788391962 30° C 71% 1016.9 hPa 0 mm - 11 W/m² -
1788391660 30° C 70% 1016.9 hPa 0 mm - 12 W/m² -
1788391354 30.56° C 69% 1016.9 hPa 0 mm - 12 W/m² -
1788391054 30.56° C 70% 1016.8 hPa 0 mm - 11 W/m² -
1788390749 30.56° C 68% 1016.8 hPa 0 mm - 12 W/m² -
1788390444 31.11° C 69% 1016.9 hPa 0 mm - 13 W/m² -
1788390143 31.67° C 66% 1016.7 hPa 0 mm - 14 W/m² -
1788389838 31.67° C 66% 1016.8 hPa 0 mm - 19 W/m² -
1788389538 32.22° C 62% 1016.8 hPa 0 mm - 25 W/m² -
1788389236 32.22° C 63% 1016.8 hPa 0 mm - 27 W/m² -
1788388932 32.22° C 64% 1016.8 hPa 0 mm - 53 W/m² -
1788388629 31.67° C 63% 1016.7 hPa 0 mm - 62 W/m² -
1788388328 31.67° C 64% 1016.7 hPa 0 mm - 39 W/m² -
1788388027 31.67° C 64% 1016.8 hPa 0 mm - 30 W/m² -
1788387727 32.22° C 61% 1016.9 hPa 0 mm - 37 W/m² -
1788387421 32.78° C 62% 1017.1 hPa 0 mm - 58 W/m² -
1788387121 32.78° C 59% 1016.9 hPa 0 mm - 56 W/m² -
1788386817 33.33° C 56% 1016.9 hPa 0 mm - 59 W/m² -
1788386517 32.78° C 59% 1017 hPa 0 mm - 54 W/m² -
1788386213 33.89° C 56% 1017 hPa 0 mm - 42 W/m² -
1788385908 34.44° C 51% 1016.9 hPa 0 mm - 40 W/m² -
1788385603 35° C 47% 1016.9 hPa 0 mm - 42 W/m² -

* Rain latest hour (hover to see other rain measurements)
** Current wind speed in m/s (hover to see current wind gust speed)